createdAt,value
2017-08-03T00:02:06.735Z,99.90
2017-08-03T00:04:34.276Z,99.90
2017-08-03T00:07:02.637Z,99.90
2017-08-03T00:09:30.187Z,99.90
2017-08-03T00:11:57.741Z,99.90
2017-08-03T00:14:25.314Z,99.90
2017-08-03T00:16:52.853Z,99.90
2017-08-03T00:19:20.399Z,99.90
2017-08-03T00:21:47.985Z,99.90
2017-08-03T00:24:15.525Z,99.90
2017-08-03T00:26:43.896Z,99.90
2017-08-03T00:29:12.225Z,99.90
2017-08-03T00:31:39.777Z,99.90
2017-08-03T00:34:07.320Z,99.90
2017-08-03T00:36:34.881Z,99.90
2017-08-03T00:39:02.403Z,99.90
2017-08-03T00:41:29.934Z,99.90
2017-08-03T00:43:57.523Z,99.90
2017-08-03T00:46:25.105Z,99.90
2017-08-03T00:48:52.644Z,99.90
2017-08-03T00:51:20.222Z,99.90
2017-08-03T00:53:47.769Z,99.90
2017-08-03T00:56:15.320Z,99.90
2017-08-03T00:58:42.886Z,99.90
2017-08-03T01:01:10.719Z,99.90
2017-08-03T01:03:39.014Z,99.90
2017-08-03T01:06:07.326Z,99.90
2017-08-03T01:08:34.875Z,99.90
2017-08-03T01:11:02.408Z,99.90
2017-08-03T01:13:29.993Z,99.90
2017-08-03T01:15:57.516Z,99.90
2017-08-03T01:18:25.053Z,99.90
2017-08-03T01:20:52.624Z,99.90
2017-08-03T01:23:20.142Z,99.90
2017-08-03T01:25:48.440Z,99.90
2017-08-03T01:28:17.006Z,99.90
2017-08-03T01:30:44.570Z,99.90
2017-08-03T01:33:12.875Z,99.90
2017-08-03T01:35:40.447Z,99.90
2017-08-03T01:38:07.990Z,99.90
2017-08-03T01:40:36.332Z,99.90
2017-08-03T01:43:03.894Z,99.90
2017-08-03T01:45:31.408Z,99.90
2017-08-03T01:47:58.943Z,99.90
2017-08-03T01:50:26.503Z,99.90
2017-08-03T01:52:54.038Z,99.90
2017-08-03T01:55:21.622Z,99.90
2017-08-03T01:57:49.195Z,99.90
2017-08-03T02:00:16.771Z,99.90
2017-08-03T02:02:44.312Z,99.90
2017-08-03T02:05:11.869Z,99.90
2017-08-03T02:07:39.463Z,99.90
2017-08-03T02:10:07.006Z,99.90
2017-08-03T02:12:34.586Z,99.90
2017-08-03T02:15:02.141Z,99.90
2017-08-03T02:17:29.703Z,99.90
2017-08-03T02:19:57.262Z,99.90
2017-08-03T02:22:24.816Z,99.90
2017-08-03T02:24:52.365Z,99.90
2017-08-03T02:27:19.976Z,99.90
2017-08-03T02:29:48.323Z,99.90
2017-08-03T02:32:15.881Z,99.90
2017-08-03T02:34:43.431Z,99.90
2017-08-03T02:37:10.965Z,99.90
2017-08-03T02:39:38.509Z,99.90
2017-08-03T02:42:06.057Z,99.90
2017-08-03T02:44:33.594Z,99.90
2017-08-03T02:47:01.110Z,99.90
2017-08-03T02:49:28.662Z,99.90
2017-08-03T02:51:56.225Z,99.90
2017-08-03T02:54:24.330Z,99.90
2017-08-03T02:56:52.628Z,99.90
2017-08-03T02:59:20.164Z,99.90
2017-08-03T03:01:47.731Z,99.90
2017-08-03T03:04:15.304Z,99.90
2017-08-03T03:06:43.594Z,99.90
2017-08-03T03:09:11.882Z,99.90
2017-08-03T03:11:39.446Z,99.90
2017-08-03T03:14:06.991Z,99.90
2017-08-03T03:16:35.323Z,99.90
2017-08-03T03:19:02.895Z,99.90
2017-08-03T03:21:30.435Z,99.90
2017-08-03T03:23:57.960Z,99.90
2017-08-03T03:26:26.270Z,99.90
2017-08-03T03:28:53.800Z,99.90
2017-08-03T03:31:21.351Z,99.90
2017-08-03T03:33:48.900Z,99.90
2017-08-03T03:36:16.432Z,99.90
2017-08-03T03:38:43.987Z,99.90
2017-08-03T03:41:11.516Z,99.90
2017-08-03T03:43:39.030Z,99.90
2017-08-03T03:46:06.578Z,99.90
2017-08-03T03:48:34.116Z,99.90
2017-08-03T03:51:01.683Z,99.90
2017-08-03T03:53:29.990Z,99.90
2017-08-03T03:55:57.532Z,99.90
2017-08-03T03:58:25.855Z,99.90
2017-08-03T04:00:53.391Z,99.90
2017-08-03T04:03:20.926Z,99.90
2017-08-03T04:05:48.509Z,99.90
2017-08-03T04:08:16.818Z,99.90
2017-08-03T04:10:44.354Z,99.90
2017-08-03T04:13:12.675Z,99.90
2017-08-03T04:15:40.192Z,99.90
2017-08-03T04:18:08.534Z,99.90
2017-08-03T04:20:36.098Z,99.90
2017-08-03T04:23:03.631Z,99.90
2017-08-03T04:25:31.200Z,99.90
2017-08-03T04:27:58.746Z,99.90
2017-08-03T04:30:27.028Z,99.90
2017-08-03T04:32:55.315Z,99.90
2017-08-03T04:35:22.883Z,99.90
2017-08-03T04:37:50.427Z,99.90
2017-08-03T04:40:18.718Z,99.90
2017-08-03T04:42:47.054Z,99.90
2017-08-03T04:45:14.609Z,99.90
2017-08-03T04:47:42.137Z,99.90
2017-08-03T04:50:09.666Z,99.90
2017-08-03T04:52:37.237Z,99.90
2017-08-03T04:55:04.770Z,99.90
2017-08-03T04:57:32.326Z,99.90
2017-08-03T04:59:59.890Z,99.90
2017-08-03T05:02:27.447Z,99.90
2017-08-03T05:04:54.982Z,99.90
2017-08-03T05:07:22.542Z,99.90
2017-08-03T05:09:50.847Z,99.90
2017-08-03T05:12:18.403Z,99.90
2017-08-03T05:14:46.949Z,99.90
2017-08-03T05:17:14.470Z,99.90
2017-08-03T05:19:42.006Z,99.90
2017-08-03T05:22:10.339Z,99.90
2017-08-03T05:24:37.870Z,99.90
2017-08-03T05:27:05.423Z,99.90
2017-08-03T05:29:32.982Z,99.90
2017-08-03T05:32:01.419Z,99.90
2017-08-03T05:34:29.900Z,99.90
2017-08-03T05:36:57.478Z,99.90
2017-08-03T05:39:25.019Z,99.90
2017-08-03T05:41:52.556Z,99.90
2017-08-03T05:44:20.108Z,99.90
2017-08-03T05:46:48.407Z,99.90
2017-08-03T05:49:16.025Z,99.90
2017-08-03T05:51:44.957Z,99.90
2017-08-03T05:54:12.499Z,99.90
2017-08-03T05:56:40.795Z,99.90
2017-08-03T05:59:09.108Z,99.90
2017-08-03T06:01:36.648Z,99.90
2017-08-03T06:04:04.953Z,99.90
2017-08-03T06:06:32.497Z,99.90
2017-08-03T06:09:00.043Z,99.90
2017-08-03T06:11:27.590Z,99.90
2017-08-03T06:13:55.145Z,99.90
2017-08-03T06:16:22.717Z,99.90
2017-08-03T06:18:50.255Z,99.90
2017-08-03T06:21:17.819Z,99.90
2017-08-03T06:23:45.344Z,99.90
2017-08-03T06:26:12.883Z,99.90
2017-08-03T06:28:41.227Z,99.90
2017-08-03T06:31:08.749Z,99.90
2017-08-03T06:33:36.278Z,99.90
2017-08-03T06:36:03.837Z,99.90
2017-08-03T06:38:31.364Z,99.90
2017-08-03T06:40:58.888Z,99.90
2017-08-03T06:43:27.220Z,99.90
2017-08-03T06:45:54.740Z,99.90
2017-08-03T06:48:22.267Z,99.90
2017-08-03T06:50:49.806Z,99.90
2017-08-03T06:53:17.338Z,99.90
2017-08-03T06:55:44.874Z,99.90
2017-08-03T06:58:12.425Z,99.90
2017-08-03T07:00:39.969Z,99.90
2017-08-03T07:03:07.504Z,99.90
2017-08-03T07:05:35.038Z,99.90
2017-08-03T07:08:02.583Z,99.90
2017-08-03T07:10:30.124Z,99.90
2017-08-03T07:12:57.696Z,99.90
2017-08-03T07:15:25.213Z,99.90
2017-08-03T07:17:53.506Z,98.70
2017-08-03T07:20:21.058Z,98.60
2017-08-03T07:22:49.341Z,97.00
2017-08-03T07:25:16.860Z,96.90
2017-08-03T07:27:45.428Z,94.40
2017-08-03T07:30:12.992Z,92.50
2017-08-03T07:32:40.528Z,90.70
2017-08-03T07:35:08.097Z,87.80
2017-08-03T07:37:35.636Z,85.00
2017-08-03T07:40:03.970Z,84.20
2017-08-03T07:42:31.536Z,84.10
2017-08-03T07:45:02.318Z,76.70
2017-08-03T07:47:30.621Z,75.80
2017-08-03T07:49:58.164Z,75.80
2017-08-03T07:52:25.699Z,72.50
2017-08-03T07:54:53.245Z,70.60
2017-08-03T07:57:20.812Z,67.80
2017-08-03T07:59:48.337Z,65.80
2017-08-03T08:02:15.895Z,66.70
2017-08-03T08:04:44.226Z,62.30
2017-08-03T08:07:12.211Z,62.30
2017-08-03T08:09:39.752Z,62.50
2017-08-03T08:12:07.301Z,63.00
2017-08-03T08:14:34.902Z,67.90
2017-08-03T08:17:02.410Z,65.90
2017-08-03T08:19:29.928Z,65.60
2017-08-03T08:21:57.478Z,63.10
2017-08-03T08:24:25.015Z,62.30
2017-08-03T08:26:52.555Z,59.20
2017-08-03T08:29:20.887Z,58.20
2017-08-03T08:31:48.425Z,58.30
2017-08-03T08:34:15.963Z,57.10
2017-08-03T08:36:44.726Z,58.10
2017-08-03T08:39:12.274Z,58.30
2017-08-03T08:41:39.802Z,61.30
2017-08-03T08:44:09.132Z,63.20
2017-08-03T08:46:36.682Z,63.20
2017-08-03T08:49:04.242Z,66.30
2017-08-03T08:51:32.785Z,65.50
2017-08-03T08:54:00.340Z,64.40
2017-08-03T08:56:27.881Z,68.60
2017-08-03T08:58:55.445Z,68.70
2017-08-03T09:01:22.971Z,69.80
2017-08-03T09:03:50.505Z,70.60
2017-08-03T09:06:18.062Z,70.70
2017-08-03T09:08:45.602Z,72.40
2017-08-03T09:11:13.139Z,73.20
2017-08-03T09:13:40.739Z,73.90
2017-08-03T09:16:08.286Z,75.30
2017-08-03T09:18:35.825Z,75.50
2017-08-03T09:21:04.169Z,76.60
2017-08-03T09:23:31.700Z,77.20
2017-08-03T09:25:59.239Z,77.30
2017-08-03T09:28:27.567Z,76.70
2017-08-03T09:30:55.091Z,76.20
2017-08-03T09:33:22.635Z,77.90
2017-08-03T09:35:50.967Z,79.30
2017-08-03T09:38:18.501Z,79.20
2017-08-03T09:40:46.021Z,79.20
2017-08-03T09:43:13.582Z,79.70
2017-08-03T09:45:41.137Z,79.10
2017-08-03T09:48:08.673Z,77.80
2017-08-03T09:50:36.237Z,77.90
2017-08-03T09:53:03.785Z,79.70
2017-08-03T09:55:31.339Z,80.00
2017-08-03T09:57:59.680Z,76.80
2017-08-03T10:00:27.218Z,76.30
2017-08-03T10:02:54.750Z,75.20
2017-08-03T10:05:23.079Z,73.70
2017-08-03T10:07:50.625Z,73.70
2017-08-03T10:10:18.181Z,72.10
2017-08-03T10:12:46.754Z,71.80
2017-08-03T10:15:14.322Z,70.50
2017-08-03T10:17:41.877Z,67.10
2017-08-03T10:20:10.193Z,61.40
2017-08-03T10:22:37.765Z,61.40
2017-08-03T10:25:08.098Z,60.10
2017-08-03T10:27:35.675Z,60.20
2017-08-03T10:30:03.249Z,61.60
2017-08-03T10:32:30.813Z,60.80
2017-08-03T10:34:58.399Z,57.10
2017-08-03T10:37:26.710Z,53.70
2017-08-03T10:39:54.260Z,53.80
2017-08-03T10:42:22.579Z,52.00
2017-08-03T10:44:50.160Z,51.30
2017-08-03T10:47:17.698Z,49.60
2017-08-03T10:49:45.300Z,47.50
2017-08-03T10:52:12.846Z,47.90
2017-08-03T10:54:40.381Z,48.10
2017-08-03T10:57:07.945Z,47.30
2017-08-03T10:59:35.494Z,44.40
2017-08-03T11:02:03.002Z,45.60
2017-08-03T11:04:30.581Z,47.50
2017-08-03T11:06:58.201Z,45.60
2017-08-03T11:09:25.752Z,46.20
2017-08-03T11:11:54.059Z,46.10
2017-08-03T11:14:21.608Z,46.10
2017-08-03T11:16:49.144Z,46.50
2017-08-03T11:19:16.716Z,46.80
2017-08-03T11:21:45.023Z,49.40
2017-08-03T11:24:12.566Z,49.40
2017-08-03T11:26:40.896Z,49.20
2017-08-03T11:29:08.448Z,49.20
2017-08-03T11:31:36.003Z,48.30
2017-08-03T11:34:03.557Z,46.50
2017-08-03T11:36:31.099Z,46.80
2017-08-03T11:38:59.407Z,43.60
2017-08-03T11:41:26.979Z,43.60
2017-08-03T11:43:54.531Z,42.40
2017-08-03T11:46:22.073Z,40.80
2017-08-03T11:48:50.402Z,43.50
2017-08-03T11:51:17.931Z,42.70
2017-08-03T11:53:45.475Z,42.30
2017-08-03T11:56:13.065Z,42.60
2017-08-03T11:58:40.606Z,41.80
2017-08-03T12:01:08.148Z,42.10
2017-08-03T12:03:35.735Z,40.80
2017-08-03T12:06:04.052Z,41.00
2017-08-03T12:08:31.604Z,40.90
2017-08-03T12:10:59.178Z,39.20
2017-08-03T12:13:26.728Z,41.30
2017-08-03T12:15:55.055Z,42.40
2017-08-03T12:18:22.624Z,42.60
2017-08-03T12:20:50.189Z,44.10
2017-08-03T12:23:17.741Z,43.80
2017-08-03T12:25:45.383Z,45.80
2017-08-03T12:28:12.987Z,45.50
2017-08-03T12:30:40.547Z,46.10
2017-08-03T12:33:08.142Z,45.40
2017-08-03T12:35:35.892Z,45.00
2017-08-03T12:38:03.433Z,44.00
2017-08-03T12:40:31.000Z,43.20
2017-08-03T12:42:58.588Z,42.00
2017-08-03T12:45:26.152Z,38.90
2017-08-03T12:47:53.841Z,40.50
2017-08-03T12:50:21.517Z,38.80
2017-08-03T12:52:49.124Z,38.00
2017-08-03T12:55:16.731Z,38.40
2017-08-03T12:57:44.288Z,40.80
2017-08-03T13:00:12.091Z,37.90
2017-08-03T13:02:39.690Z,39.40
2017-08-03T13:05:07.233Z,39.50
2017-08-03T13:07:34.797Z,40.80
2017-08-03T13:10:03.383Z,40.70
2017-08-03T13:12:39.056Z,38.10
2017-08-03T13:15:08.378Z,39.90
2017-08-03T13:17:36.002Z,39.80
2017-08-03T13:20:03.576Z,39.30
2017-08-03T13:22:31.381Z,42.90
2017-08-03T13:24:58.929Z,43.80
2017-08-03T13:27:26.467Z,43.50
2017-08-03T13:29:54.788Z,43.40
2017-08-03T13:32:22.325Z,43.40
2017-08-03T13:34:49.875Z,45.80
2017-08-03T13:37:17.427Z,41.90
2017-08-03T13:39:45.731Z,38.10
2017-08-03T13:42:13.261Z,38.10
2017-08-03T13:44:40.840Z,38.20
2017-08-03T13:47:09.139Z,41.50
2017-08-03T13:49:36.697Z,41.60
2017-08-03T13:52:04.272Z,43.10
2017-08-03T13:54:31.813Z,43.60
2017-08-03T13:56:59.344Z,42.90
2017-08-03T13:59:26.877Z,43.50
2017-08-03T14:01:54.414Z,44.10
2017-08-03T14:04:21.949Z,44.30
2017-08-03T14:06:49.512Z,43.20
2017-08-03T14:09:17.045Z,45.50
2017-08-03T14:11:44.592Z,45.30
2017-08-03T14:14:12.172Z,46.80
2017-08-03T14:16:39.714Z,45.30
2017-08-03T14:19:07.255Z,48.10
2017-08-03T14:21:36.548Z,46.00
2017-08-03T14:24:04.840Z,47.10
2017-08-03T14:26:33.155Z,46.30
2017-08-03T14:29:00.702Z,46.40
2017-08-03T14:31:28.233Z,42.50
2017-08-03T14:33:55.749Z,42.10
2017-08-03T14:36:23.309Z,41.90
2017-08-03T14:38:50.844Z,43.20
2017-08-03T14:41:19.151Z,43.60
2017-08-03T14:43:46.717Z,43.60
2017-08-03T14:46:14.258Z,42.30
2017-08-03T14:48:41.794Z,44.30
2017-08-03T14:51:09.355Z,43.50
2017-08-03T14:53:36.923Z,45.40
2017-08-03T14:56:04.451Z,44.40
2017-08-03T14:58:32.024Z,46.00
2017-08-03T15:00:59.573Z,45.90
2017-08-03T15:03:27.159Z,47.30
2017-08-03T15:05:54.720Z,49.40
2017-08-03T15:08:22.255Z,50.40
2017-08-03T15:10:49.789Z,52.70
2017-08-03T15:13:18.546Z,53.60
2017-08-03T15:15:46.102Z,53.60
2017-08-03T15:18:13.654Z,55.30
2017-08-03T15:20:41.216Z,59.30
2017-08-03T15:23:08.743Z,61.30
2017-08-03T15:25:36.347Z,62.60
2017-08-03T15:28:03.890Z,61.20
2017-08-03T15:30:31.429Z,61.70
2017-08-03T15:32:59.724Z,60.40
2017-08-03T15:35:28.038Z,61.80
2017-08-03T15:37:55.608Z,61.80
2017-08-03T15:40:23.155Z,61.20
2017-08-03T15:42:50.716Z,59.70
2017-08-03T15:45:18.241Z,59.60
2017-08-03T15:47:45.782Z,59.50
2017-08-03T15:50:13.357Z,61.20
2017-08-03T15:52:40.923Z,61.10
2017-08-03T15:55:08.471Z,63.70
2017-08-03T15:57:36.068Z,65.40
2017-08-03T16:00:03.585Z,67.70
2017-08-03T16:02:31.136Z,69.00
2017-08-03T16:04:58.703Z,68.70
2017-08-03T16:07:26.243Z,70.80
2017-08-03T16:09:53.790Z,72.20
2017-08-03T16:12:22.125Z,73.50
2017-08-03T16:14:49.670Z,73.10
2017-08-03T16:17:17.197Z,73.40
2017-08-03T16:19:44.757Z,71.90
2017-08-03T16:22:12.281Z,70.20
2017-08-03T16:24:39.801Z,66.60
2017-08-03T16:27:08.113Z,62.50
2017-08-03T16:29:35.664Z,62.50
2017-08-03T16:32:03.189Z,59.00
2017-08-03T16:34:30.733Z,59.90
2017-08-03T16:36:58.285Z,60.00
2017-08-03T16:39:25.816Z,62.00
2017-08-03T16:41:53.381Z,63.20
2017-08-03T16:44:20.899Z,66.50
2017-08-03T16:46:48.438Z,68.30
2017-08-03T16:49:16.012Z,68.60
2017-08-03T16:51:44.605Z,69.60
2017-08-03T16:54:12.121Z,69.00
2017-08-03T16:56:40.448Z,71.60
2017-08-03T16:59:07.989Z,71.50
2017-08-03T17:01:35.524Z,71.60
2017-08-03T17:04:03.112Z,72.10
2017-08-03T17:06:30.713Z,74.70
2017-08-03T17:08:58.253Z,76.00
2017-08-03T17:11:30.013Z,75.60
2017-08-03T17:13:57.545Z,77.10
2017-08-03T17:16:25.097Z,77.90
2017-08-03T17:18:53.443Z,79.50
2017-08-03T17:21:20.978Z,79.40
2017-08-03T17:23:48.521Z,79.00
2017-08-03T17:26:16.834Z,80.10
2017-08-03T17:28:44.382Z,80.10
2017-08-03T17:31:11.912Z,81.60
2017-08-03T17:33:40.231Z,84.10
2017-08-03T17:36:07.775Z,83.50
2017-08-03T17:38:36.071Z,83.90
2017-08-03T17:41:03.768Z,83.90
2017-08-03T17:43:31.448Z,84.10
2017-08-03T17:45:59.159Z,84.70
2017-08-03T17:48:26.834Z,86.00
2017-08-03T17:50:54.387Z,87.40
2017-08-03T17:53:22.919Z,89.10
2017-08-03T17:55:50.556Z,88.90
2017-08-03T17:58:18.119Z,89.00
2017-08-03T18:00:45.864Z,90.70
2017-08-03T18:03:14.269Z,92.50
2017-08-03T18:05:41.833Z,92.50
2017-08-03T18:08:09.372Z,93.30
2017-08-03T18:10:36.930Z,93.20
2017-08-03T18:13:04.762Z,94.20
2017-08-03T18:15:32.400Z,94.60
2017-08-03T18:17:59.995Z,95.30
2017-08-03T18:20:27.625Z,95.70
2017-08-03T18:22:55.264Z,96.10
2017-08-03T18:25:22.869Z,96.70
2017-08-03T18:27:50.417Z,97.20
2017-08-03T18:30:18.938Z,98.00
2017-08-03T18:32:46.738Z,99.00
2017-08-03T18:35:14.365Z,99.60
2017-08-03T18:37:41.899Z,99.90
2017-08-03T18:40:09.536Z,99.90
2017-08-03T18:42:37.063Z,99.90
2017-08-03T18:45:04.691Z,99.90
2017-08-03T18:47:32.260Z,99.90
2017-08-03T18:50:00.685Z,99.90
2017-08-03T18:52:28.235Z,99.90
2017-08-03T18:54:56.118Z,99.90
2017-08-03T18:57:23.925Z,99.90
2017-08-03T18:59:51.911Z,99.90
2017-08-03T19:02:19.494Z,99.90
2017-08-03T19:04:47.501Z,99.90
2017-08-03T19:07:15.323Z,99.90
2017-08-03T19:09:49.484Z,99.90
2017-08-03T19:12:17.438Z,99.90
2017-08-03T19:14:45.256Z,99.90
2017-08-03T19:17:12.873Z,99.90
2017-08-03T19:19:40.788Z,99.90
2017-08-03T19:22:08.314Z,99.90
2017-08-03T19:24:36.176Z,99.90
2017-08-03T19:27:05.621Z,99.90
2017-08-03T19:29:33.370Z,99.90
2017-08-03T19:32:00.974Z,99.90
2017-08-03T19:34:28.587Z,99.90
2017-08-03T19:36:56.337Z,99.90
2017-08-03T19:39:25.427Z,99.90
2017-08-03T19:41:53.322Z,99.90
2017-08-03T19:44:20.983Z,99.90
2017-08-03T19:46:49.571Z,99.90
2017-08-03T19:49:17.919Z,99.90
2017-08-03T19:51:45.821Z,99.90
2017-08-03T19:54:15.345Z,99.90
2017-08-03T19:56:43.699Z,99.90
2017-08-03T19:59:11.735Z,99.90
2017-08-03T20:01:41.068Z,99.90
2017-08-03T20:04:09.240Z,99.90
2017-08-03T20:06:46.971Z,99.90
2017-08-03T20:09:24.230Z,99.90
2017-08-03T20:11:52.719Z,99.90
2017-08-03T20:14:20.596Z,99.90
2017-08-03T20:16:48.546Z,99.90
2017-08-03T20:19:16.256Z,99.90
2017-08-03T20:21:44.019Z,99.90
2017-08-03T20:24:12.496Z,99.90
2017-08-03T20:26:40.334Z,99.90
2017-08-03T20:29:07.977Z,99.90
2017-08-03T20:31:35.684Z,99.90
2017-08-03T20:34:03.478Z,99.90
2017-08-03T20:36:31.153Z,99.90
2017-08-03T20:38:59.042Z,99.90
2017-08-03T20:41:27.396Z,99.90
2017-08-03T20:43:55.367Z,99.90
2017-08-03T20:46:23.911Z,99.90
2017-08-03T20:48:52.420Z,99.90
2017-08-03T20:51:20.100Z,99.90
2017-08-03T20:53:48.425Z,99.90
2017-08-03T20:56:15.999Z,99.90
2017-08-03T20:58:43.532Z,99.90
2017-08-03T21:01:12.009Z,99.90
2017-08-03T21:03:40.521Z,99.90
2017-08-03T21:06:08.248Z,99.90
2017-08-03T21:08:36.643Z,99.90
2017-08-03T21:11:04.547Z,99.90
2017-08-03T21:13:32.373Z,99.90
2017-08-03T21:16:01.175Z,99.90
2017-08-03T21:18:30.129Z,99.90
2017-08-03T21:20:58.108Z,99.90
2017-08-03T21:23:26.038Z,99.90
2017-08-03T21:25:54.438Z,99.90
2017-08-03T21:28:22.179Z,99.90
2017-08-03T21:30:51.515Z,99.90
2017-08-03T21:33:19.085Z,99.90
2017-08-03T21:35:46.627Z,99.90
2017-08-03T21:38:14.942Z,99.90
2017-08-03T21:40:42.499Z,99.90
2017-08-03T21:43:10.040Z,99.90
2017-08-03T21:45:38.321Z,99.90
2017-08-03T21:48:06.646Z,99.90
2017-08-03T21:50:34.182Z,99.90
2017-08-03T21:53:01.707Z,99.90
2017-08-03T21:55:29.285Z,99.90
2017-08-03T21:57:57.632Z,99.90
2017-08-03T22:00:37.043Z,99.90
2017-08-03T22:03:04.669Z,99.90
2017-08-03T22:05:33.038Z,99.90
2017-08-03T22:08:00.660Z,99.90
2017-08-03T22:10:28.241Z,99.90
2017-08-03T22:12:55.756Z,99.90
2017-08-03T22:15:25.061Z,99.90
2017-08-03T22:17:52.607Z,99.90
2017-08-03T22:20:20.909Z,99.90
2017-08-03T22:22:48.466Z,99.90
2017-08-03T22:25:16.787Z,99.90
2017-08-03T22:27:44.318Z,99.90
2017-08-03T22:30:11.972Z,99.90
2017-08-03T22:32:39.509Z,99.90
2017-08-03T22:35:07.822Z,99.90
2017-08-03T22:37:35.370Z,99.90
2017-08-03T22:40:02.940Z,99.90
2017-08-03T22:42:31.268Z,99.90
2017-08-03T22:44:58.824Z,99.90
2017-08-03T22:47:26.364Z,99.90
2017-08-03T22:49:54.659Z,99.90
2017-08-03T22:52:22.266Z,99.90
2017-08-03T22:54:49.812Z,99.90
2017-08-03T22:57:17.347Z,99.90
2017-08-03T22:59:44.940Z,99.90
2017-08-03T23:02:12.477Z,99.90
2017-08-03T23:04:40.014Z,99.90
2017-08-03T23:07:07.580Z,99.90
2017-08-03T23:09:35.911Z,99.90
2017-08-03T23:12:03.746Z,99.90
2017-08-03T23:14:32.082Z,99.90
2017-08-03T23:16:59.638Z,99.90
2017-08-03T23:19:27.180Z,99.90
2017-08-03T23:21:54.823Z,99.90
2017-08-03T23:24:22.430Z,99.90
2017-08-03T23:26:49.997Z,99.90
2017-08-03T23:29:17.575Z,99.90
2017-08-03T23:31:45.140Z,99.90
2017-08-03T23:34:12.680Z,99.90
2017-08-03T23:36:41.253Z,99.90
2017-08-03T23:39:08.808Z,99.90
2017-08-03T23:41:36.337Z,99.90
2017-08-03T23:44:03.921Z,99.90
2017-08-03T23:46:31.467Z,99.90
2017-08-03T23:48:59.017Z,99.90
2017-08-03T23:51:26.583Z,99.90
2017-08-03T23:53:54.125Z,99.90
2017-08-03T23:56:21.685Z,99.90
2017-08-03T23:58:49.248Z,99.90
